createdAt,value
2022-10-17T04:30:59.659Z,12.54
2022-10-17T04:31:59.635Z,12.56
2022-10-17T04:32:59.601Z,12.56
2022-10-17T04:33:59.643Z,12.54
2022-10-17T04:34:59.617Z,12.52
2022-10-17T04:35:59.553Z,12.49
2022-10-17T04:36:59.555Z,12.49
2022-10-17T04:37:59.534Z,12.46
2022-10-17T04:38:59.552Z,12.45
2022-10-17T04:39:59.590Z,12.44
2022-10-17T04:40:59.503Z,12.45
2022-10-17T04:41:59.523Z,12.44
2022-10-17T04:42:59.472Z,12.42
2022-10-17T04:43:59.484Z,12.42
2022-10-17T04:44:59.468Z,12.42
2022-10-17T04:45:59.434Z,12.41
2022-10-17T04:46:59.421Z,12.38
2022-10-17T04:47:59.402Z,12.39
2022-10-17T04:48:59.452Z,12.41
2022-10-17T04:49:59.420Z,12.45
2022-10-17T04:50:59.371Z,12.48
2022-10-17T04:51:59.361Z,12.46
2022-10-17T04:52:59.352Z,12.48
2022-10-17T04:53:59.381Z,12.49
2022-10-17T04:54:59.344Z,12.48
2022-10-17T04:56:06.348Z,12.48
2022-10-17T04:56:59.371Z,12.45
2022-10-17T04:57:59.288Z,12.44
2022-10-17T04:58:59.278Z,12.39
2022-10-17T04:59:59.333Z,12.39
2022-10-17T05:00:59.336Z,12.37
2022-10-17T05:01:59.228Z,12.34
2022-10-17T05:02:59.217Z,12.31
2022-10-17T05:03:59.210Z,12.31
2022-10-17T05:04:59.188Z,12.41
2022-10-17T05:05:59.178Z,12.56
2022-10-17T05:06:59.165Z,12.74
2022-10-17T05:07:59.157Z,12.88
2022-10-17T05:08:59.148Z,13.00
2022-10-17T05:09:59.148Z,13.07
2022-10-17T05:11:59.088Z,13.20
2022-10-17T05:12:59.189Z,13.33
2022-10-17T05:13:59.078Z,13.46
2022-10-17T05:14:59.058Z,13.49
2022-10-17T05:15:59.038Z,13.44
2022-10-17T05:16:59.030Z,13.46
2022-10-17T05:17:59.047Z,13.52
2022-10-17T05:18:59.038Z,13.54
2022-10-17T05:19:58.998Z,13.51
2022-10-17T05:20:59.064Z,13.52
2022-10-17T05:21:58.958Z,13.62
2022-10-17T05:22:58.947Z,13.63
2022-10-17T05:23:58.945Z,13.55
2022-10-17T05:24:58.927Z,13.43
2022-10-17T05:25:58.906Z,13.33
2022-10-17T05:26:58.898Z,13.22
2022-10-17T05:27:58.876Z,13.14
2022-10-17T05:28:58.933Z,13.03
2022-10-17T05:29:58.898Z,12.93
2022-10-17T05:30:58.848Z,12.84
2022-10-17T05:31:58.874Z,12.78
2022-10-17T05:32:58.823Z,12.74
2022-10-17T05:33:58.808Z,12.70
2022-10-17T05:34:58.800Z,12.66
2022-10-17T05:35:58.807Z,12.63
2022-10-17T05:36:58.767Z,12.59
2022-10-17T05:37:58.776Z,12.56
2022-10-17T05:38:58.817Z,12.57
2022-10-17T05:39:58.726Z,12.56
2022-10-17T05:40:58.715Z,12.54
2022-10-17T05:41:58.706Z,12.59
2022-10-17T05:42:58.696Z,12.57
2022-10-17T05:44:01.765Z,12.57
2022-10-17T05:44:59.666Z,12.59
2022-10-17T05:45:58.655Z,12.60
2022-10-17T05:46:58.637Z,12.60
2022-10-17T05:47:58.626Z,12.59
2022-10-17T05:48:58.631Z,12.62
2022-10-17T05:49:58.604Z,12.64
2022-10-17T05:50:58.585Z,12.64
2022-10-17T05:51:58.575Z,12.64
2022-10-17T05:52:58.556Z,12.64
2022-10-17T05:53:58.558Z,12.62
2022-10-17T05:54:58.534Z,12.57
2022-10-17T05:55:58.527Z,12.57
2022-10-17T05:56:58.505Z,12.62
2022-10-17T05:57:58.502Z,12.63
2022-10-17T05:59:01.042Z,12.63
2022-10-17T05:59:58.466Z,12.62
2022-10-17T06:00:58.455Z,12.59
2022-10-17T06:01:58.489Z,12.57
2022-10-17T06:02:58.492Z,12.57
2022-10-17T06:03:58.452Z,12.54
2022-10-17T06:04:58.404Z,12.59
2022-10-17T06:05:58.393Z,12.59
2022-10-17T06:06:58.381Z,12.57
2022-10-17T06:08:01.143Z,12.59
2022-10-17T06:08:58.365Z,12.63
2022-10-17T06:09:58.474Z,12.60
2022-10-17T06:10:58.321Z,12.59
2022-10-17T06:11:58.314Z,12.56
2022-10-17T06:12:58.302Z,12.57
2022-10-17T06:13:58.293Z,12.56
2022-10-17T06:14:58.280Z,12.54
2022-10-17T06:15:58.265Z,12.54
2022-10-17T06:16:58.251Z,12.54
2022-10-17T06:17:58.234Z,12.54
2022-10-17T06:18:58.214Z,12.52
2022-10-17T06:19:58.298Z,12.52
2022-10-17T06:20:58.196Z,12.51
2022-10-17T06:21:58.205Z,12.49
2022-10-17T06:22:58.162Z,12.51
2022-10-17T06:23:58.175Z,12.59
2022-10-17T06:24:58.159Z,12.66
2022-10-17T06:25:58.133Z,12.81
2022-10-17T06:26:58.112Z,12.99
2022-10-17T06:27:58.112Z,13.14
2022-10-17T06:28:58.145Z,13.29
2022-10-17T06:29:58.090Z,13.44
2022-10-17T06:30:58.062Z,13.56
2022-10-17T06:31:58.060Z,13.65
2022-10-17T06:32:58.032Z,13.77
2022-10-17T06:33:58.031Z,13.89
2022-10-17T06:34:58.020Z,13.96
2022-10-17T06:35:58.003Z,13.99
2022-10-17T06:36:58.001Z,14.10
2022-10-17T06:37:57.991Z,14.20
2022-10-17T06:38:57.962Z,14.31
2022-10-17T06:39:57.961Z,14.37
2022-10-17T06:40:57.930Z,14.38
2022-10-17T06:41:57.921Z,14.39
2022-10-17T06:42:57.911Z,14.39
2022-10-17T06:43:57.891Z,14.43
2022-10-17T06:44:57.889Z,14.47
2022-10-17T06:46:57.853Z,14.61
2022-10-17T06:47:57.850Z,14.65
2022-10-17T06:48:57.839Z,14.68
2022-10-17T06:49:57.830Z,14.72
2022-10-17T06:50:57.800Z,14.75
2022-10-17T06:51:57.790Z,14.81
2022-10-17T06:52:57.779Z,14.87
2022-10-17T06:53:57.760Z,14.90
2022-10-17T06:54:57.807Z,14.95
2022-10-17T06:55:57.746Z,15.01
2022-10-17T06:56:57.720Z,15.03
2022-10-17T06:57:57.719Z,15.06
2022-10-17T06:58:57.699Z,15.08
2022-10-17T06:59:57.721Z,15.06
2022-10-17T07:01:00.804Z,15.08
2022-10-17T07:01:57.660Z,15.13
2022-10-17T07:02:57.640Z,15.13
2022-10-17T07:03:57.638Z,15.17
2022-10-17T07:04:57.632Z,15.21
2022-10-17T07:05:57.617Z,15.24
2022-10-17T07:07:57.618Z,15.31
2022-10-17T07:08:57.569Z,15.31
2022-10-17T07:09:57.589Z,15.35
2022-10-17T07:10:57.548Z,15.41
2022-10-17T07:11:57.539Z,15.42
2022-10-17T07:12:57.519Z,15.46
2022-10-17T07:13:57.521Z,15.51
2022-10-17T07:14:57.497Z,15.56
2022-10-17T07:16:57.469Z,15.60
2022-10-17T07:17:57.460Z,15.64
2022-10-17T07:18:57.447Z,15.67
2022-10-17T07:19:57.429Z,15.68
2022-10-17T07:20:57.435Z,15.74
2022-10-17T07:21:57.541Z,15.75
2022-10-17T07:22:57.425Z,15.79
2022-10-17T07:23:57.380Z,15.82
2022-10-17T07:24:57.380Z,15.84
2022-10-17T07:25:57.367Z,15.88
2022-10-17T07:26:57.338Z,15.92
2022-10-17T07:27:57.329Z,15.93
2022-10-17T07:28:57.383Z,15.96
2022-10-17T07:29:57.399Z,16.00
2022-10-17T07:30:57.319Z,16.04
2022-10-17T07:31:57.269Z,16.11
2022-10-17T07:32:57.257Z,16.14
2022-10-17T07:33:57.260Z,16.16
2022-10-17T07:34:57.228Z,16.18
2022-10-17T07:35:57.240Z,16.20
2022-10-17T07:36:57.199Z,16.23
2022-10-17T07:37:57.196Z,16.25
2022-10-17T07:38:57.180Z,16.27
2022-10-17T07:39:57.170Z,16.31
2022-10-17T07:40:57.170Z,16.35
2022-10-17T07:41:57.142Z,16.40
2022-10-17T07:42:57.121Z,16.44
2022-10-17T07:43:57.115Z,16.49
2022-10-17T07:44:57.097Z,16.52
2022-10-17T07:45:57.099Z,16.56
2022-10-17T07:46:57.067Z,16.60
2022-10-17T07:47:57.059Z,16.67
2022-10-17T07:48:57.038Z,16.71
2022-10-17T07:49:57.027Z,16.74
2022-10-17T07:50:57.036Z,16.80
2022-10-17T07:51:57.005Z,16.81
2022-10-17T07:52:56.987Z,16.81
2022-10-17T07:53:56.980Z,16.86
2022-10-17T07:54:56.968Z,16.88
2022-10-17T07:55:56.969Z,16.88
2022-10-17T07:56:56.937Z,16.92
2022-10-17T07:57:56.926Z,16.98
2022-10-17T07:59:56.900Z,17.10
2022-10-17T08:00:56.959Z,17.18
2022-10-17T08:01:56.879Z,17.25
2022-10-17T08:02:56.878Z,17.33
2022-10-17T08:03:56.848Z,17.38
2022-10-17T08:04:56.839Z,17.46
2022-10-17T08:05:56.839Z,17.55
2022-10-17T08:07:11.354Z,17.69
2022-10-17T08:07:57.796Z,17.81
2022-10-17T08:08:56.788Z,17.89
2022-10-17T08:09:56.831Z,17.99
2022-10-17T08:10:56.757Z,18.06
2022-10-17T08:11:56.767Z,18.12
2022-10-17T08:12:56.736Z,18.15
2022-10-17T08:13:56.716Z,18.18
2022-10-17T08:14:56.708Z,18.22
2022-10-17T08:15:56.696Z,18.25
2022-10-17T08:16:56.698Z,18.21
2022-10-17T08:17:56.680Z,18.24
2022-10-17T08:18:56.721Z,18.24
2022-10-17T08:19:56.637Z,18.27
2022-10-17T08:20:59.406Z,18.33
2022-10-17T08:21:56.627Z,18.33
2022-10-17T08:22:56.607Z,18.34
2022-10-17T08:23:56.590Z,18.39
2022-10-17T08:24:56.577Z,18.37
2022-10-17T08:25:56.568Z,18.44
2022-10-17T08:26:56.565Z,18.49
2022-10-17T08:27:56.553Z,18.57
2022-10-17T08:28:56.610Z,18.61
2022-10-17T08:29:56.507Z,18.72
2022-10-17T08:30:56.505Z,18.77
2022-10-17T08:32:01.013Z,18.91
2022-10-17T08:32:57.469Z,19.18
2022-10-17T08:33:56.455Z,19.50
2022-10-17T08:34:56.448Z,19.69
2022-10-17T08:35:56.437Z,19.76
2022-10-17T08:36:56.502Z,19.87
2022-10-17T08:37:56.408Z,20.21
2022-10-17T08:38:56.397Z,20.50
2022-10-17T08:39:56.378Z,20.51
2022-10-17T08:40:56.387Z,20.56
2022-10-17T08:41:56.358Z,20.53
2022-10-17T08:42:56.347Z,20.56
2022-10-17T08:43:56.331Z,20.51
2022-10-17T08:44:56.318Z,20.61
2022-10-17T08:45:56.318Z,20.65
2022-10-17T08:46:56.288Z,20.83
2022-10-17T08:47:56.267Z,20.99
2022-10-17T08:48:56.266Z,21.08
2022-10-17T08:49:56.257Z,21.08
2022-10-17T08:50:56.260Z,20.98
2022-10-17T08:51:56.225Z,21.05
2022-10-17T08:52:56.217Z,21.08
2022-10-17T08:53:56.198Z,21.14
2022-10-17T08:54:56.187Z,21.09
2022-10-17T08:55:56.170Z,21.14
2022-10-17T08:56:56.167Z,21.21
2022-10-17T08:57:56.148Z,21.26
2022-10-17T08:58:56.159Z,21.23
2022-10-17T08:59:56.127Z,21.48
2022-10-17T09:00:56.118Z,21.83
2022-10-17T09:01:56.106Z,21.99
2022-10-17T09:02:56.138Z,21.82
2022-10-17T09:03:56.069Z,21.63
2022-10-17T09:04:56.068Z,21.76
2022-10-17T09:05:56.047Z,22.07
2022-10-17T09:06:56.038Z,22.28
2022-10-17T09:07:56.020Z,21.79
2022-10-17T09:08:56.016Z,21.44
2022-10-17T09:09:56.000Z,21.14
2022-10-17T09:10:55.979Z,20.87
2022-10-17T09:11:55.979Z,20.79
2022-10-17T09:12:55.971Z,20.56
2022-10-17T09:13:55.939Z,20.50
2022-10-17T09:14:55.928Z,20.42
2022-10-17T09:15:55.908Z,20.34
2022-10-17T09:16:55.910Z,20.35
2022-10-17T09:17:55.889Z,20.38
2022-10-17T09:18:55.877Z,20.39
2022-10-17T09:19:55.858Z,20.41
2022-10-17T09:20:55.869Z,20.56
2022-10-17T09:21:55.838Z,20.91
2022-10-17T09:24:03.826Z,21.94
2022-10-17T09:24:56.816Z,22.53
2022-10-17T09:25:55.780Z,23.04
2022-10-17T09:26:55.818Z,23.26
2022-10-17T09:27:55.756Z,23.38
2022-10-17T09:28:55.817Z,23.26
2022-10-17T09:29:55.729Z,23.11
2022-10-17T09:30:55.719Z,22.47
2022-10-17T09:32:55.699Z,21.94
2022-10-17T09:33:55.692Z,21.81
2022-10-17T09:34:55.672Z,21.56
2022-10-17T09:35:55.648Z,21.32
2022-10-17T09:36:55.888Z,21.17
2022-10-17T09:37:55.619Z,21.06
2022-10-17T09:38:55.618Z,21.01
2022-10-17T09:39:55.603Z,20.98
2022-10-17T09:40:57.116Z,20.98
2022-10-17T09:41:55.587Z,21.05
2022-10-17T09:42:55.569Z,21.13
2022-10-17T09:43:55.549Z,21.36
2022-10-17T09:44:55.541Z,21.36
2022-10-17T09:45:55.534Z,21.29
2022-10-17T09:46:55.543Z,21.32
2022-10-17T09:47:57.562Z,21.32
2022-10-17T09:48:55.507Z,21.27
2022-10-17T09:49:55.471Z,21.19
2022-10-17T09:51:08.249Z,21.14
2022-10-17T09:51:56.449Z,21.09
2022-10-17T09:52:55.438Z,21.17
2022-10-17T09:53:55.419Z,21.21
2022-10-17T09:54:55.412Z,21.30
2022-10-17T09:55:55.390Z,21.34
2022-10-17T09:56:55.380Z,21.24
2022-10-17T09:57:55.379Z,21.14
2022-10-17T09:58:55.368Z,21.17
2022-10-17T09:59:55.349Z,21.17
2022-10-17T10:00:55.373Z,21.19
2022-10-17T10:01:55.320Z,21.21
2022-10-17T10:02:55.317Z,21.24
2022-10-17T10:03:55.299Z,21.42
2022-10-17T10:05:10.300Z,21.75
2022-10-17T10:05:56.269Z,21.91
2022-10-17T10:06:55.252Z,21.78
2022-10-17T10:07:55.259Z,21.66
2022-10-17T10:08:55.231Z,21.53
2022-10-17T10:09:55.220Z,21.42
2022-10-17T10:10:55.201Z,21.34
2022-10-17T10:11:55.191Z,21.34
2022-10-17T10:12:55.191Z,21.35
2022-10-17T10:13:55.173Z,21.30
2022-10-17T10:14:55.501Z,21.30
2022-10-17T10:15:55.139Z,21.32
2022-10-17T10:16:55.120Z,21.30
2022-10-17T10:17:55.133Z,21.24
2022-10-17T10:18:55.103Z,21.20
2022-10-17T10:19:55.091Z,21.17
2022-10-17T10:20:55.072Z,21.14
2022-10-17T10:21:55.081Z,21.13
2022-10-17T10:22:58.176Z,21.09
2022-10-17T10:23:55.039Z,21.06
2022-10-17T10:24:55.065Z,21.04
2022-10-17T10:25:55.012Z,21.02
2022-10-17T10:26:54.992Z,21.01
2022-10-17T10:27:56.367Z,20.99
2022-10-17T10:28:55.083Z,20.99
2022-10-17T10:29:54.961Z,20.99
2022-10-17T10:30:55.067Z,20.93
2022-10-17T10:31:54.943Z,20.90
2022-10-17T10:32:54.930Z,20.89
2022-10-17T10:33:57.501Z,20.87
2022-10-17T10:34:54.891Z,20.87
2022-10-17T10:35:54.881Z,20.83
2022-10-17T10:36:54.862Z,20.79
2022-10-17T10:37:54.873Z,20.80
2022-10-17T10:38:54.842Z,20.81
2022-10-17T10:39:54.832Z,20.80
2022-10-17T10:40:54.812Z,20.77
2022-10-17T10:41:54.811Z,20.79
2022-10-17T10:42:54.802Z,20.76
2022-10-17T10:43:54.779Z,20.74
2022-10-17T10:44:54.762Z,20.71
2022-10-17T10:45:54.751Z,20.71
2022-10-17T10:46:54.732Z,20.69
2022-10-17T10:47:54.723Z,20.66
2022-10-17T10:48:54.721Z,20.65
2022-10-17T10:49:54.701Z,20.62
2022-10-17T10:50:54.695Z,20.61
2022-10-17T10:51:54.671Z,20.58
2022-10-17T10:52:54.663Z,20.56
2022-10-17T10:53:54.659Z,20.56
2022-10-17T10:54:54.632Z,20.54
2022-10-17T10:55:54.622Z,20.50
2022-10-17T10:57:01.673Z,20.49
2022-10-17T10:57:54.624Z,20.47
2022-10-17T10:58:54.661Z,20.46
2022-10-17T10:59:54.564Z,20.46
2022-10-17T11:00:54.602Z,20.46
2022-10-17T11:01:54.535Z,20.50
2022-10-17T11:02:54.543Z,20.51
2022-10-17T11:03:54.531Z,20.51
2022-10-17T11:04:54.505Z,20.51
2022-10-17T11:05:54.492Z,20.54
2022-10-17T11:06:54.485Z,20.54
2022-10-17T11:07:54.465Z,20.54
2022-10-17T11:08:54.472Z,20.54
2022-10-17T11:09:54.433Z,20.54
2022-10-17T11:10:54.433Z,20.53
2022-10-17T11:11:54.412Z,20.51
2022-10-17T11:12:54.404Z,20.51
2022-10-17T11:13:54.391Z,20.47
2022-10-17T11:14:54.383Z,20.43
2022-10-17T11:15:54.362Z,20.43
2022-10-17T11:16:54.365Z,20.46
2022-10-17T11:17:54.334Z,20.49
2022-10-17T11:18:54.329Z,20.53
2022-10-17T11:19:54.314Z,20.66
2022-10-17T11:20:54.293Z,20.83
2022-10-17T11:21:54.287Z,21.04
2022-10-17T11:22:54.274Z,21.39
2022-10-17T11:23:54.264Z,22.69
2022-10-17T11:24:54.263Z,22.92
2022-10-17T11:25:54.224Z,23.22
2022-10-17T11:26:54.215Z,22.82
2022-10-17T11:27:54.205Z,22.50
2022-10-17T11:28:54.267Z,22.20
2022-10-17T11:29:54.194Z,21.94
2022-10-17T11:30:54.167Z,21.66
2022-10-17T11:31:54.163Z,21.44
2022-10-17T11:32:54.151Z,21.24
2022-10-17T11:33:54.114Z,21.19
2022-10-17T11:34:54.124Z,21.09
2022-10-17T11:35:54.111Z,21.02
2022-10-17T11:36:54.084Z,20.93
2022-10-17T11:37:54.064Z,20.90
2022-10-17T11:38:54.064Z,20.87
2022-10-17T11:39:54.068Z,20.84
2022-10-17T11:40:54.048Z,20.84
2022-10-17T11:41:55.412Z,20.83
2022-10-17T11:42:54.026Z,20.81
2022-10-17T11:43:54.015Z,20.80
2022-10-17T11:44:54.006Z,20.77
2022-10-17T11:45:53.974Z,20.76
2022-10-17T11:46:53.967Z,20.71
2022-10-17T11:47:53.945Z,20.69
2022-10-17T11:48:53.934Z,20.66
2022-10-17T11:49:54.043Z,20.68
2022-10-17T11:52:03.121Z,20.71
2022-10-17T11:52:56.940Z,20.74
2022-10-17T11:53:53.865Z,20.77
2022-10-17T11:54:53.865Z,20.84
2022-10-17T11:55:53.836Z,20.86
2022-10-17T11:56:53.835Z,20.91
2022-10-17T11:57:53.813Z,20.93
2022-10-17T11:58:53.804Z,20.96
2022-10-17T11:59:53.825Z,20.91
2022-10-17T12:00:53.775Z,20.81
2022-10-17T12:01:53.766Z,20.74
2022-10-17T12:02:53.757Z,20.66
2022-10-17T12:03:53.734Z,20.62
2022-10-17T12:04:53.831Z,20.62
2022-10-17T12:05:53.706Z,20.69
2022-10-17T12:06:53.789Z,20.68
2022-10-17T12:07:53.676Z,20.65
2022-10-17T12:08:53.677Z,20.66
2022-10-17T12:09:53.675Z,20.66
2022-10-17T12:10:53.645Z,20.68
2022-10-17T12:11:53.625Z,20.69
2022-10-17T12:12:53.615Z,20.71
2022-10-17T12:13:53.595Z,20.79
2022-10-17T12:14:53.595Z,20.87
2022-10-17T12:15:53.586Z,20.87
2022-10-17T12:16:53.583Z,20.87
2022-10-17T12:17:53.545Z,20.83
2022-10-17T12:18:53.538Z,20.86
2022-10-17T12:19:53.547Z,20.90
2022-10-17T12:20:53.544Z,20.98
2022-10-17T12:21:53.508Z,21.05
2022-10-17T12:22:53.487Z,21.08
2022-10-17T12:23:53.470Z,21.16
2022-10-17T12:24:53.457Z,21.17
2022-10-17T12:25:54.982Z,21.09
2022-10-17T12:26:56.408Z,20.99
2022-10-17T12:27:53.427Z,20.96
2022-10-17T12:28:53.494Z,20.96
2022-10-17T12:29:53.406Z,20.98
2022-10-17T12:30:53.391Z,20.95
2022-10-17T12:31:53.373Z,20.91
2022-10-17T12:33:05.232Z,20.90
2022-10-17T12:33:54.336Z,20.84
2022-10-17T12:34:53.328Z,20.77
2022-10-17T12:35:53.366Z,20.76
2022-10-17T12:36:53.295Z,20.72
2022-10-17T12:37:56.223Z,20.69
2022-10-17T12:38:54.301Z,20.65
2022-10-17T12:39:53.278Z,20.62
2022-10-17T12:40:53.277Z,20.59
2022-10-17T12:41:53.227Z,20.53
2022-10-17T12:42:53.229Z,20.49
2022-10-17T12:43:53.270Z,20.42
2022-10-17T12:44:53.216Z,20.38
2022-10-17T12:45:53.206Z,20.33
2022-10-17T12:46:53.178Z,20.28
2022-10-17T12:47:53.148Z,20.25
2022-10-17T12:48:53.145Z,20.21
2022-10-17T12:49:56.462Z,20.21
2022-10-17T12:50:53.133Z,20.23
2022-10-17T12:51:53.103Z,20.23
2022-10-17T12:52:53.089Z,20.21
2022-10-17T12:53:53.070Z,20.20
2022-10-17T12:55:07.214Z,20.16
2022-10-17T12:55:54.068Z,20.15
2022-10-17T12:56:53.037Z,20.12
2022-10-17T12:57:53.026Z,20.12
2022-10-17T12:58:53.017Z,20.08
2022-10-17T12:59:56.619Z,20.05
2022-10-17T13:01:12.085Z,20.00
2022-10-17T13:01:54.028Z,19.97
2022-10-17T13:02:52.967Z,19.94
2022-10-17T13:03:52.994Z,19.88
2022-10-17T13:04:53.644Z,19.83
2022-10-17T13:05:52.935Z,19.79
2022-10-17T13:06:52.908Z,19.79
2022-10-17T13:07:52.899Z,19.78
2022-10-17T13:08:55.546Z,19.76
2022-10-17T13:09:52.870Z,19.76
2022-10-17T13:10:52.883Z,19.76
2022-10-17T13:11:52.840Z,19.76
2022-10-17T13:12:52.830Z,19.75
2022-10-17T13:13:52.816Z,19.73
2022-10-17T13:14:52.808Z,19.73
2022-10-17T13:15:52.817Z,19.73
2022-10-17T13:16:52.788Z,19.75
2022-10-17T13:17:52.766Z,19.73
2022-10-17T13:18:52.756Z,19.75
2022-10-17T13:19:52.740Z,19.73
2022-10-17T13:20:52.747Z,19.70
2022-10-17T13:21:52.718Z,19.68
2022-10-17T13:22:52.712Z,19.65
2022-10-17T13:23:52.691Z,19.63
2022-10-17T13:24:52.688Z,19.60
2022-10-17T13:25:52.689Z,19.60
2022-10-17T13:26:52.648Z,19.61
2022-10-17T13:27:52.640Z,19.65
2022-10-17T13:28:52.757Z,19.68
2022-10-17T13:29:52.608Z,19.70
2022-10-17T13:30:53.715Z,19.70
2022-10-17T13:31:53.353Z,19.69
2022-10-17T13:32:52.577Z,19.70
2022-10-17T13:33:52.558Z,19.68
2022-10-17T13:34:52.561Z,19.69
2022-10-17T13:36:00.542Z,19.69
2022-10-17T13:36:53.548Z,19.75
2022-10-17T13:37:54.078Z,19.79
2022-10-17T13:38:52.507Z,19.83
2022-10-17T13:39:56.559Z,19.84
2022-10-17T13:41:01.380Z,19.90
2022-10-17T13:41:53.460Z,19.91
2022-10-17T13:42:52.456Z,19.90
2022-10-17T13:43:52.436Z,19.87
2022-10-17T13:44:52.427Z,19.83
2022-10-17T13:45:52.419Z,19.78
2022-10-17T13:46:52.398Z,19.72
2022-10-17T13:47:52.391Z,19.72
2022-10-17T13:48:52.378Z,19.70
2022-10-17T13:49:55.234Z,19.66
2022-10-17T13:50:52.358Z,19.66
2022-10-17T13:51:52.328Z,19.63
2022-10-17T13:52:52.318Z,19.60
2022-10-17T13:53:52.309Z,19.61
2022-10-17T13:54:52.297Z,19.60
2022-10-17T13:56:09.149Z,19.60
2022-10-17T13:57:52.298Z,19.60
2022-10-17T13:58:52.241Z,19.58
2022-10-17T13:59:52.237Z,19.57
2022-10-17T14:00:52.280Z,19.54
2022-10-17T14:01:52.509Z,19.53
2022-10-17T14:02:52.250Z,19.50
2022-10-17T14:04:07.203Z,19.50
2022-10-17T14:05:19.673Z,19.46
2022-10-17T14:05:53.160Z,19.43
2022-10-17T14:06:52.532Z,19.38
2022-10-17T14:08:10.520Z,19.38
2022-10-17T14:08:53.118Z,19.36
2022-10-17T14:09:52.116Z,19.32
2022-10-17T14:10:52.089Z,19.32
2022-10-17T14:11:52.092Z,19.32
2022-10-17T14:12:52.067Z,19.32
2022-10-17T14:13:52.069Z,19.33
2022-10-17T14:15:09.800Z,19.32
2022-10-17T14:15:53.135Z,19.32
2022-10-17T14:16:52.028Z,19.32
2022-10-17T14:17:51.999Z,19.33
2022-10-17T14:18:51.988Z,19.33
2022-10-17T14:20:06.555Z,19.35
2022-10-17T14:21:34.426Z,19.33
2022-10-17T14:21:52.957Z,19.31
2022-10-17T14:23:17.508Z,19.31
2022-10-17T14:23:52.927Z,19.33
2022-10-17T14:24:51.910Z,19.32
2022-10-17T14:25:51.889Z,19.33
2022-10-17T14:26:51.900Z,19.33
2022-10-17T14:27:51.868Z,19.32
2022-10-17T14:28:51.885Z,19.31
2022-10-17T14:29:51.847Z,19.31
2022-10-17T14:30:56.826Z,19.29
2022-10-17T14:31:52.837Z,19.29
2022-10-17T14:32:51.838Z,19.29
2022-10-17T14:33:51.800Z,19.25
2022-10-17T14:34:51.822Z,19.24
2022-10-17T14:35:51.758Z,19.20
2022-10-17T14:36:51.768Z,19.18
2022-10-17T14:37:51.739Z,19.17
2022-10-17T14:38:51.728Z,19.17
2022-10-17T14:39:51.709Z,19.15
2022-10-17T14:40:51.722Z,19.15
2022-10-17T14:41:51.699Z,19.15
2022-10-17T14:42:51.678Z,19.15
2022-10-17T14:43:51.668Z,19.15
2022-10-17T14:44:51.648Z,19.17
2022-10-17T14:45:51.649Z,19.18
2022-10-17T14:46:51.702Z,19.18
2022-10-17T14:47:51.785Z,19.18
2022-10-17T14:48:51.598Z,19.18
2022-10-17T14:49:51.578Z,19.17
2022-10-17T14:50:51.578Z,19.17
2022-10-17T14:52:03.838Z,19.17
2022-10-17T14:52:52.599Z,19.18
2022-10-17T14:53:51.539Z,19.20
2022-10-17T14:54:51.527Z,19.20
2022-10-17T14:55:51.508Z,19.20
2022-10-17T14:56:51.512Z,19.21
2022-10-17T14:57:51.478Z,19.21
2022-10-17T14:58:51.469Z,19.20
2022-10-17T14:59:54.221Z,19.20
2022-10-17T15:00:51.448Z,19.18
2022-10-17T15:01:51.440Z,19.18
2022-10-17T15:02:51.451Z,19.18
2022-10-17T15:03:51.551Z,19.18
2022-10-17T15:04:51.401Z,19.18
2022-10-17T15:05:51.379Z,19.18
2022-10-17T15:06:51.388Z,19.20
2022-10-17T15:07:51.357Z,19.23
2022-10-17T15:08:51.352Z,19.23
2022-10-17T15:09:51.329Z,19.24
2022-10-17T15:10:51.323Z,19.24
2022-10-17T15:11:51.318Z,19.24
2022-10-17T15:12:58.972Z,19.25
2022-10-17T15:13:52.277Z,19.24
2022-10-17T15:14:51.268Z,19.23
2022-10-17T15:15:51.253Z,19.21
2022-10-17T15:16:51.256Z,19.21
2022-10-17T15:17:51.228Z,19.20
2022-10-17T15:18:51.220Z,19.18
2022-10-17T15:19:51.213Z,19.17
2022-10-17T15:20:59.533Z,19.17
2022-10-17T15:21:52.199Z,19.15
2022-10-17T15:22:51.171Z,19.18
2022-10-17T15:23:51.149Z,19.15
2022-10-17T15:24:51.141Z,19.14
2022-10-17T15:25:51.119Z,19.14
2022-10-17T15:26:51.213Z,19.17
2022-10-17T15:27:51.098Z,19.15
2022-10-17T15:28:51.122Z,19.15
2022-10-17T15:29:51.078Z,19.17
2022-10-17T15:30:51.066Z,19.17
2022-10-17T15:31:51.048Z,19.18
2022-10-17T15:32:51.048Z,19.18
2022-10-17T15:33:51.076Z,19.18
2022-10-17T15:34:51.008Z,19.18
2022-10-17T15:35:51.005Z,19.17
2022-10-17T15:36:51.002Z,19.15
2022-10-17T15:37:50.971Z,19.15
2022-10-17T15:38:50.958Z,19.13
2022-10-17T15:39:50.953Z,19.13
2022-10-17T15:40:50.954Z,19.11
2022-10-17T15:41:50.927Z,19.11
2022-10-17T15:42:50.908Z,19.10
2022-10-17T15:43:50.888Z,19.11
2022-10-17T15:44:50.878Z,19.08
2022-10-17T15:45:50.858Z,19.06
2022-10-17T15:46:50.848Z,19.06
2022-10-17T15:47:50.849Z,19.06
2022-10-17T15:48:50.827Z,19.02
2022-10-17T15:49:50.818Z,19.02
2022-10-17T15:50:50.831Z,19.02
2022-10-17T15:51:53.022Z,18.98
2022-10-17T15:52:50.799Z,18.95
2022-10-17T15:53:50.758Z,18.97
2022-10-17T15:54:50.747Z,18.95
2022-10-17T15:55:50.728Z,18.94
2022-10-17T15:56:50.740Z,18.95
2022-10-17T15:57:50.737Z,18.94
2022-10-17T15:58:50.721Z,18.94
2022-10-17T15:59:50.680Z,18.94
2022-10-17T16:00:50.732Z,18.94
2022-10-17T16:01:50.669Z,18.92
2022-10-17T16:02:50.710Z,18.91
2022-10-17T16:03:50.664Z,18.90
2022-10-17T16:04:50.626Z,18.86
2022-10-17T16:05:50.606Z,18.86
2022-10-17T16:06:50.617Z,18.83
2022-10-17T16:07:50.573Z,18.80
2022-10-17T16:08:50.568Z,18.79
2022-10-17T16:09:50.548Z,18.77
2022-10-17T16:10:50.562Z,18.77
2022-10-17T16:11:50.539Z,18.76
2022-10-17T16:12:50.710Z,18.76
2022-10-17T16:13:50.498Z,18.74
2022-10-17T16:14:50.489Z,18.74
2022-10-17T16:15:50.486Z,18.74
2022-10-17T16:16:50.577Z,18.73
2022-10-17T16:17:50.450Z,18.73
2022-10-17T16:18:50.437Z,18.70
2022-10-17T16:19:50.417Z,18.67
2022-10-17T16:20:50.408Z,18.68
2022-10-17T16:21:50.407Z,18.65
2022-10-17T16:22:50.389Z,18.64
2022-10-17T16:23:50.390Z,18.65
2022-10-17T16:24:50.357Z,18.62
2022-10-17T16:25:50.341Z,18.59
2022-10-17T16:26:50.346Z,18.58
2022-10-17T16:27:50.317Z,18.58
2022-10-17T16:28:50.375Z,18.57
2022-10-17T16:29:50.287Z,18.55
2022-10-17T16:30:50.282Z,18.50
2022-10-17T16:31:50.274Z,18.50
2022-10-17T16:32:50.267Z,18.47
2022-10-17T16:33:50.243Z,18.46
2022-10-17T16:34:50.247Z,18.44
2022-10-17T16:35:50.216Z,18.43
2022-10-17T16:36:50.229Z,18.42
2022-10-17T16:37:50.177Z,18.40
2022-10-17T16:38:50.177Z,18.39
2022-10-17T16:39:50.159Z,18.39
2022-10-17T16:40:50.148Z,18.36
2022-10-17T16:41:52.583Z,18.33
2022-10-17T16:42:50.123Z,18.31
2022-10-17T16:43:50.098Z,18.28
2022-10-17T16:44:50.107Z,18.27
2022-10-17T16:45:50.097Z,18.25
2022-10-17T16:46:50.108Z,18.24
2022-10-17T16:47:50.069Z,18.22
2022-10-17T16:48:50.057Z,18.22
2022-10-17T16:49:50.028Z,18.21
2022-10-17T16:50:50.017Z,18.18
2022-10-17T16:51:50.020Z,18.15
2022-10-17T16:52:50.002Z,18.12
2022-10-17T16:53:49.986Z,18.10
2022-10-17T16:54:49.966Z,18.07
2022-10-17T16:55:49.947Z,18.04
2022-10-17T16:56:49.947Z,18.03
2022-10-17T16:57:49.954Z,18.02
2022-10-17T16:58:49.928Z,17.97
2022-10-17T16:59:49.898Z,17.94
2022-10-17T17:00:49.932Z,17.94
2022-10-17T17:01:49.886Z,17.94
2022-10-17T17:02:49.857Z,17.94
2022-10-17T17:03:49.847Z,17.94
2022-10-17T17:04:49.838Z,17.94
2022-10-17T17:05:49.837Z,17.89
2022-10-17T17:06:49.853Z,17.87
2022-10-17T17:07:49.798Z,17.84
2022-10-17T17:08:49.797Z,17.82
2022-10-17T17:09:49.787Z,17.82
2022-10-17T17:10:49.770Z,17.81
2022-10-17T17:11:49.757Z,17.78
2022-10-17T17:12:49.739Z,17.76
2022-10-17T17:13:49.717Z,17.74
2022-10-17T17:14:49.707Z,17.76
2022-10-17T17:15:49.714Z,17.76
2022-10-17T17:16:49.687Z,17.74
2022-10-17T17:17:54.703Z,17.74
2022-10-17T17:18:50.647Z,17.74
2022-10-17T17:19:49.647Z,17.71
2022-10-17T17:20:49.627Z,17.73
2022-10-17T17:21:49.635Z,17.71
2022-10-17T17:22:49.608Z,17.70
2022-10-17T17:23:49.587Z,17.70
2022-10-17T17:25:49.579Z,17.69
2022-10-17T17:26:49.566Z,17.67
2022-10-17T17:27:49.547Z,17.66
2022-10-17T17:28:49.572Z,17.63
2022-10-17T17:29:49.519Z,17.62
2022-10-17T17:30:49.498Z,17.57
2022-10-17T17:31:49.497Z,17.54
2022-10-17T17:32:49.469Z,17.53